CYAY

St. Anthony Airport

Airport
ICAO code
CYAY
IATA Code
YAY
Summary
ICAO Region
NAM
ICAO Territory
Location

St. Anthony, Newfoundland

Serving
St. Anthony
Elevation
108 ft
Coordinates
51° 29' 29" N , 55° 48' 48" W
KCC
Metar
Observation
CYAY 280300Z AUTO 25013G19KT 9SM OVC027 01/M00 A2944 RMK SLP974
Station
Saint Anthony Airport
Date/Time
2022-11-28 03:00:00
Wind direction
250°
Wind speed
13 kts
Lowest cloud amount
overcast
Temperature
1°C
Dew point
-0°C
Humidity
93%
Weather condition
n/a

Description

Newfoundland and Labrador is home to a variety of climates and weather. One of the main reasons for this diversity is the geography of the province. The island portion of the province spans 5 degrees of latitude, which is comparable to that of the Great Lakes. The province has been divided into six climate types, but in broader terms Newfoundland has a cool summer subtype of a humid continental climate, which is greatly influenced by the sea since no part of the island is more than 100 km from the ocean. Northern Labrador is classified as a polar tundra climate, southern Labrador has a subarctic climate.

Climatology

Subarctic climate (Köppen climate classification Dfb) - long, usually very cold winters, and short, cool to mild summers.

Runways

Designator Length Width Surface Rops
10/28 1219 30 ASP No/No

Airport map

Aerial View

SKYbrary Partners:

Safety knowledge contributed by: